sensor_id;sensor_type;location;lat;lon;timestamp;P1;durP1;ratioP1;P2;durP2;ratioP2
33495;SDS011;19836;55.812;37.560;2024-01-30T02:14:24;4.78;;;3.95;;
33495;SDS011;19836;55.812;37.560;2024-01-30T02:16:51;5.13;;;4.32;;
33495;SDS011;19836;55.812;37.560;2024-01-30T02:19:17;6.28;;;5.05;;
33495;SDS011;19836;55.812;37.560;2024-01-30T02:21:43;4.63;;;2.88;;
33495;SDS011;19836;55.812;37.560;2024-01-30T02:24:10;6.70;;;4.25;;
33495;SDS011;19836;55.812;37.560;2024-01-30T02:26:36;6.40;;;5.32;;
33495;SDS011;19836;55.812;37.560;2024-01-30T02:29:02;5.47;;;4.10;;
33495;SDS011;19836;55.812;37.560;2024-01-30T02:31:28;6.38;;;5.32;;
33495;SDS011;19836;55.812;37.560;2024-01-30T02:33:54;5.97;;;4.97;;
33495;SDS011;19836;55.812;37.560;2024-01-30T02:36:20;5.93;;;4.80;;
33495;SDS011;19836;55.812;37.560;2024-01-30T02:38:46;5.82;;;4.97;;
33495;SDS011;19836;55.812;37.560;2024-01-30T02:41:12;5.55;;;4.90;;
33495;SDS011;19836;55.812;37.560;2024-01-30T02:43:38;6.63;;;5.00;;
33495;SDS011;19836;55.812;37.560;2024-01-30T02:46:04;6.55;;;5.10;;
33495;SDS011;19836;55.812;37.560;2024-01-30T02:48:31;6.85;;;4.80;;
33495;SDS011;19836;55.812;37.560;2024-01-30T02:50:57;6.43;;;5.25;;
33495;SDS011;19836;55.812;37.560;2024-01-30T02:53:23;7.53;;;5.60;;
33495;SDS011;19836;55.812;37.560;2024-01-30T02:55:50;6.32;;;5.55;;
33495;SDS011;19836;55.812;37.560;2024-01-30T02:58:17;6.78;;;3.90;;
33495;SDS011;19836;55.812;37.560;2024-01-30T03:00:45;5.72;;;5.07;;
33495;SDS011;19836;55.812;37.560;2024-01-30T03:03:11;6.60;;;4.88;;
33495;SDS011;19836;55.812;37.560;2024-01-30T03:05:37;4.75;;;4.15;;
33495;SDS011;19836;55.812;37.560;2024-01-30T03:08:04;6.03;;;4.60;;
33495;SDS011;19836;55.812;37.560;2024-01-30T03:10:33;6.25;;;4.68;;
33495;SDS011;19836;55.812;37.560;2024-01-30T03:13:09;6.32;;;5.35;;
33495;SDS011;19836;55.812;37.560;2024-01-30T03:41:44;4.70;;;4.05;;
33495;SDS011;19836;55.812;37.560;2024-01-30T03:52:42;5.80;;;4.72;;
33495;SDS011;19836;55.812;37.560;2024-01-30T03:55:09;4.45;;;3.65;;
33495;SDS011;19836;55.812;37.560;2024-01-30T03:57:35;5.50;;;4.95;;
33495;SDS011;19836;55.812;37.560;2024-01-30T04:00:04;6.47;;;4.85;;
33495;SDS011;19836;55.812;37.560;2024-01-30T04:02:37;5.70;;;4.68;;
33495;SDS011;19836;55.812;37.560;2024-01-30T04:05:03;7.10;;;5.05;;
33495;SDS011;19836;55.812;37.560;2024-01-30T04:07:30;6.35;;;5.53;;
33495;SDS011;19836;55.812;37.560;2024-01-30T04:09:55;6.10;;;4.78;;
33495;SDS011;19836;55.812;37.560;2024-01-30T04:12:21;5.53;;;4.95;;
33495;SDS011;19836;55.812;37.560;2024-01-30T04:14:47;6.07;;;5.25;;
33495;SDS011;19836;55.812;37.560;2024-01-30T04:17:13;5.85;;;5.05;;
33495;SDS011;19836;55.812;37.560;2024-01-30T04:19:39;7.38;;;5.60;;
33495;SDS011;19836;55.812;37.560;2024-01-30T04:22:06;6.13;;;5.22;;
33495;SDS011;19836;55.812;37.560;2024-01-30T04:24:31;5.60;;;4.63;;
33495;SDS011;19836;55.812;37.560;2024-01-30T04:26:57;6.65;;;5.30;;
33495;SDS011;19836;55.812;37.560;2024-01-30T04:29:23;6.45;;;5.30;;
33495;SDS011;19836;55.812;37.560;2024-01-30T04:31:49;6.35;;;5.47;;
33495;SDS011;19836;55.812;37.560;2024-01-30T04:34:15;6.97;;;5.25;;
33495;SDS011;19836;55.812;37.560;2024-01-30T04:36:43;5.57;;;4.90;;
33495;SDS011;19836;55.812;37.560;2024-01-30T04:39:11;5.97;;;5.22;;
33495;SDS011;19836;55.812;37.560;2024-01-30T04:41:38;5.80;;;4.63;;
33495;SDS011;19836;55.812;37.560;2024-01-30T04:44:03;8.25;;;5.50;;
33495;SDS011;19836;55.812;37.560;2024-01-30T04:46:29;7.00;;;5.40;;
33495;SDS011;19836;55.812;37.560;2024-01-30T04:48:55;7.93;;;5.95;;
33495;SDS011;19836;55.812;37.560;2024-01-30T04:51:21;7.00;;;5.70;;
33495;SDS011;19836;55.812;37.560;2024-01-30T04:53:47;6.43;;;5.72;;
33495;SDS011;19836;55.812;37.560;2024-01-30T04:56:13;8.13;;;5.53;;
33495;SDS011;19836;55.812;37.560;2024-01-30T04:58:38;6.43;;;5.50;;
33495;SDS011;19836;55.812;37.560;2024-01-30T05:01:04;6.78;;;5.53;;
33495;SDS011;19836;55.812;37.560;2024-01-30T05:03:32;7.38;;;5.78;;
33495;SDS011;19836;55.812;37.560;2024-01-30T05:05:59;4.72;;;4.22;;
33495;SDS011;19836;55.812;37.560;2024-01-30T05:08:25;6.15;;;5.30;;
33495;SDS011;19836;55.812;37.560;2024-01-30T05:10:51;8.32;;;5.63;;
33495;SDS011;19836;55.812;37.560;2024-01-30T05:13:17;8.13;;;6.55;;
33495;SDS011;19836;55.812;37.560;2024-01-30T05:15:43;9.93;;;5.70;;
33495;SDS011;19836;55.812;37.560;2024-01-30T05:18:09;6.25;;;5.50;;
33495;SDS011;19836;55.812;37.560;2024-01-30T05:20:36;5.72;;;4.85;;
33495;SDS011;19836;55.812;37.560;2024-01-30T05:23:02;6.57;;;4.25;;
33495;SDS011;19836;55.812;37.560;2024-01-30T05:25:28;8.18;;;6.10;;
33495;SDS011;19836;55.812;37.560;2024-01-30T05:27:54;8.80;;;6.63;;
33495;SDS011;19836;55.812;37.560;2024-01-30T05:30:20;6.22;;;5.57;;
33495;SDS011;19836;55.812;37.560;2024-01-30T05:32:46;5.55;;;4.78;;
33495;SDS011;19836;55.812;37.560;2024-01-30T05:35:12;9.95;;;6.70;;
33495;SDS011;19836;55.812;37.560;2024-01-30T05:37:38;6.18;;;5.47;;
33495;SDS011;19836;55.812;37.560;2024-01-30T05:40:04;7.20;;;5.55;;
33495;SDS011;19836;55.812;37.560;2024-01-30T05:42:30;8.25;;;5.78;;
33495;SDS011;19836;55.812;37.560;2024-01-30T05:44:56;6.40;;;5.63;;
33495;SDS011;19836;55.812;37.560;2024-01-30T05:47:22;8.52;;;6.82;;
33495;SDS011;19836;55.812;37.560;2024-01-30T05:49:48;9.00;;;6.72;;
33495;SDS011;19836;55.812;37.560;2024-01-30T05:52:14;7.25;;;5.95;;
33495;SDS011;19836;55.812;37.560;2024-01-30T05:54:40;8.88;;;6.40;;
33495;SDS011;19836;55.812;37.560;2024-01-30T05:57:06;7.30;;;5.88;;
33495;SDS011;19836;55.812;37.560;2024-01-30T05:59:32;9.27;;;6.63;;
33495;SDS011;19836;55.812;37.560;2024-01-30T06:01:58;7.43;;;6.05;;
33495;SDS011;19836;55.812;37.560;2024-01-30T06:04:24;8.05;;;6.85;;
33495;SDS011;19836;55.812;37.560;2024-01-30T06:06:50;8.00;;;6.20;;
33495;SDS011;19836;55.812;37.560;2024-01-30T06:09:16;7.70;;;6.00;;
33495;SDS011;19836;55.812;37.560;2024-01-30T06:11:41;9.30;;;6.47;;
33495;SDS011;19836;55.812;37.560;2024-01-30T06:14:07;6.78;;;5.28;;
33495;SDS011;19836;55.812;37.560;2024-01-30T06:16:33;8.07;;;6.60;;
33495;SDS011;19836;55.812;37.560;2024-01-30T06:18:59;10.23;;;7.03;;
33495;SDS011;19836;55.812;37.560;2024-01-30T06:21:25;7.97;;;6.35;;
33495;SDS011;19836;55.812;37.560;2024-01-30T06:23:51;8.75;;;6.93;;
33495;SDS011;19836;55.812;37.560;2024-01-30T06:26:17;10.65;;;6.85;;
33495;SDS011;19836;55.812;37.560;2024-01-30T06:28:43;9.32;;;7.05;;
33495;SDS011;19836;55.812;37.560;2024-01-30T06:31:09;7.10;;;5.35;;
33495;SDS011;19836;55.812;37.560;2024-01-30T06:33:35;7.32;;;6.38;;
33495;SDS011;19836;55.812;37.560;2024-01-30T06:36:01;7.70;;;6.35;;
33495;SDS011;19836;55.812;37.560;2024-01-30T06:38:27;9.38;;;7.15;;
33495;SDS011;19836;55.812;37.560;2024-01-30T06:40:53;10.07;;;6.80;;
33495;SDS011;19836;55.812;37.560;2024-01-30T06:43:19;9.30;;;6.93;;
33495;SDS011;19836;55.812;37.560;2024-01-30T06:45:45;11.90;;;7.13;;
33495;SDS011;19836;55.812;37.560;2024-01-30T06:48:11;9.23;;;7.28;;
33495;SDS011;19836;55.812;37.560;2024-01-30T06:50:37;10.00;;;6.82;;
33495;SDS011;19836;55.812;37.560;2024-01-30T06:53:03;11.40;;;7.30;;
33495;SDS011;19836;55.812;37.560;2024-01-30T06:55:29;10.05;;;6.97;;
33495;SDS011;19836;55.812;37.560;2024-01-30T06:57:55;7.72;;;6.05;;
33495;SDS011;19836;55.812;37.560;2024-01-30T07:00:21;12.27;;;9.38;;
33495;SDS011;19836;55.812;37.560;2024-01-30T07:02:48;10.77;;;8.15;;
33495;SDS011;19836;55.812;37.560;2024-01-30T07:05:14;9.60;;;7.05;;
33495;SDS011;19836;55.812;37.560;2024-01-30T07:07:40;8.18;;;6.50;;
33495;SDS011;19836;55.812;37.560;2024-01-30T07:10:06;8.50;;;6.72;;
33495;SDS011;19836;55.812;37.560;2024-01-30T07:12:33;6.95;;;4.97;;
33495;SDS011;19836;55.812;37.560;2024-01-30T07:14:59;8.43;;;6.05;;
33495;SDS011;19836;55.812;37.560;2024-01-30T07:17:25;11.48;;;7.10;;
33495;SDS011;19836;55.812;37.560;2024-01-30T07:19:52;10.00;;;7.28;;
33495;SDS011;19836;55.812;37.560;2024-01-30T07:22:17;9.25;;;6.38;;
33495;SDS011;19836;55.812;37.560;2024-01-30T07:24:43;8.68;;;6.93;;
33495;SDS011;19836;55.812;37.560;2024-01-30T07:27:14;5.65;;;4.63;;
33495;SDS011;19836;55.812;37.560;2024-01-30T07:29:42;8.95;;;7.03;;
33495;SDS011;19836;55.812;37.560;2024-01-30T07:32:09;10.07;;;7.07;;
33495;SDS011;19836;55.812;37.560;2024-01-30T07:34:35;10.38;;;6.95;;
33495;SDS011;19836;55.812;37.560;2024-01-30T07:37:01;10.02;;;6.82;;
33495;SDS011;19836;55.812;37.560;2024-01-30T07:39:28;8.00;;;6.72;;
33495;SDS011;19836;55.812;37.560;2024-01-30T07:41:54;10.07;;;7.22;;
33495;SDS011;19836;55.812;37.560;2024-01-30T07:44:20;10.20;;;7.15;;
33495;SDS011;19836;55.812;37.560;2024-01-30T07:46:46;10.98;;;6.80;;
33495;SDS011;19836;55.812;37.560;2024-01-30T07:49:12;9.40;;;7.13;;
33495;SDS011;19836;55.812;37.560;2024-01-30T07:51:39;9.30;;;6.97;;
33495;SDS011;19836;55.812;37.560;2024-01-30T07:54:14;9.80;;;6.90;;
33495;SDS011;19836;55.812;37.560;2024-01-30T07:56:41;10.00;;;6.72;;
33495;SDS011;19836;55.812;37.560;2024-01-30T07:59:10;8.73;;;6.45;;
33495;SDS011;19836;55.812;37.560;2024-01-30T08:01:37;10.07;;;7.68;;
33495;SDS011;19836;55.812;37.560;2024-01-30T08:04:03;9.23;;;7.13;;
33495;SDS011;19836;55.812;37.560;2024-01-30T08:06:29;10.00;;;7.15;;
33495;SDS011;19836;55.812;37.560;2024-01-30T08:08:55;10.95;;;7.35;;
33495;SDS011;19836;55.812;37.560;2024-01-30T08:11:22;10.02;;;7.10;;
33495;SDS011;19836;55.812;37.560;2024-01-30T08:13:55;15.40;;;7.45;;
33495;SDS011;19836;55.812;37.560;2024-01-30T08:16:21;13.68;;;8.15;;
33495;SDS011;19836;55.812;37.560;2024-01-30T08:18:48;8.63;;;5.90;;
33495;SDS011;19836;55.812;37.560;2024-01-30T08:21:14;9.40;;;5.63;;
33495;SDS011;19836;55.812;37.560;2024-01-30T08:23:40;8.88;;;7.38;;
33495;SDS011;19836;55.812;37.560;2024-01-30T08:26:07;9.63;;;8.23;;
33495;SDS011;19836;55.812;37.560;2024-01-30T08:28:33;10.05;;;7.65;;
33495;SDS011;19836;55.812;37.560;2024-01-30T08:30:59;8.75;;;5.72;;
33495;SDS011;19836;55.812;37.560;2024-01-30T08:33:25;8.40;;;6.88;;
33495;SDS011;19836;55.812;37.560;2024-01-30T08:35:51;9.68;;;7.28;;
33495;SDS011;19836;55.812;37.560;2024-01-30T08:38:18;10.45;;;7.65;;
33495;SDS011;19836;55.812;37.560;2024-01-30T08:40:44;8.77;;;6.55;;
33495;SDS011;19836;55.812;37.560;2024-01-30T08:43:10;10.18;;;7.93;;
33495;SDS011;19836;55.812;37.560;2024-01-30T08:45:36;10.05;;;7.03;;
33495;SDS011;19836;55.812;37.560;2024-01-30T08:48:02;10.77;;;8.13;;
33495;SDS011;19836;55.812;37.560;2024-01-30T08:50:28;9.48;;;6.68;;
33495;SDS011;19836;55.812;37.560;2024-01-30T08:52:55;10.77;;;8.20;;
33495;SDS011;19836;55.812;37.560;2024-01-30T08:55:22;9.40;;;7.38;;
33495;SDS011;19836;55.812;37.560;2024-01-30T08:57:48;7.70;;;5.70;;
33495;SDS011;19836;55.812;37.560;2024-01-30T09:00:16;11.73;;;7.85;;
33495;SDS011;19836;55.812;37.560;2024-01-30T09:02:43;9.60;;;7.45;;
33495;SDS011;19836;55.812;37.560;2024-01-30T09:05:09;8.60;;;7.47;;
33495;SDS011;19836;55.812;37.560;2024-01-30T09:07:35;10.10;;;7.50;;
33495;SDS011;19836;55.812;37.560;2024-01-30T09:10:01;10.05;;;7.80;;
33495;SDS011;19836;55.812;37.560;2024-01-30T09:12:28;8.45;;;7.28;;
33495;SDS011;19836;55.812;37.560;2024-01-30T09:14:54;8.77;;;7.13;;
33495;SDS011;19836;55.812;37.560;2024-01-30T09:17:20;9.57;;;8.10;;
33495;SDS011;19836;55.812;37.560;2024-01-30T09:19:46;10.30;;;6.88;;
33495;SDS011;19836;55.812;37.560;2024-01-30T09:22:12;8.65;;;6.65;;
33495;SDS011;19836;55.812;37.560;2024-01-30T09:24:38;9.13;;;6.88;;
33495;SDS011;19836;55.812;37.560;2024-01-30T09:27:05;10.52;;;7.85;;
33495;SDS011;19836;55.812;37.560;2024-01-30T09:29:31;8.77;;;7.10;;
33495;SDS011;19836;55.812;37.560;2024-01-30T09:31:59;9.98;;;7.50;;
33495;SDS011;19836;55.812;37.560;2024-01-30T09:34:25;10.15;;;8.32;;
33495;SDS011;19836;55.812;37.560;2024-01-30T09:36:51;11.55;;;7.50;;
33495;SDS011;19836;55.812;37.560;2024-01-30T09:39:17;10.25;;;8.30;;
33495;SDS011;19836;55.812;37.560;2024-01-30T09:41:48;9.23;;;7.78;;
33495;SDS011;19836;55.812;37.560;2024-01-30T09:44:18;11.88;;;8.73;;
33495;SDS011;19836;55.812;37.560;2024-01-30T09:46:46;10.35;;;7.70;;
33495;SDS011;19836;55.812;37.560;2024-01-30T09:49:13;8.85;;;7.30;;
33495;SDS011;19836;55.812;37.560;2024-01-30T09:51:40;10.15;;;8.27;;
33495;SDS011;19836;55.812;37.560;2024-01-30T09:54:07;9.65;;;7.43;;
33495;SDS011;19836;55.812;37.560;2024-01-30T09:56:35;13.63;;;7.55;;
33495;SDS011;19836;55.812;37.560;2024-01-30T09:59:01;10.98;;;7.75;;
33495;SDS011;19836;55.812;37.560;2024-01-30T10:01:26;10.20;;;7.28;;
33495;SDS011;19836;55.812;37.560;2024-01-30T10:03:53;10.93;;;7.50;;
33495;SDS011;19836;55.812;37.560;2024-01-30T10:06:19;9.95;;;7.53;;
33495;SDS011;19836;55.812;37.560;2024-01-30T10:08:46;9.73;;;7.25;;
33495;SDS011;19836;55.812;37.560;2024-01-30T10:11:12;11.27;;;7.63;;
33495;SDS011;19836;55.812;37.560;2024-01-30T10:13:38;9.68;;;7.15;;
33495;SDS011;19836;55.812;37.560;2024-01-30T10:16:04;9.40;;;7.35;;
33495;SDS011;19836;55.812;37.560;2024-01-30T10:18:32;10.73;;;8.02;;
33495;SDS011;19836;55.812;37.560;2024-01-30T10:20:58;8.40;;;7.28;;
33495;SDS011;19836;55.812;37.560;2024-01-30T10:23:24;8.40;;;7.40;;
33495;SDS011;19836;55.812;37.560;2024-01-30T10:25:51;8.05;;;5.82;;
33495;SDS011;19836;55.812;37.560;2024-01-30T10:28:17;10.70;;;8.45;;
33495;SDS011;19836;55.812;37.560;2024-01-30T10:30:43;8.38;;;7.13;;
33495;SDS011;19836;55.812;37.560;2024-01-30T10:33:09;8.88;;;7.68;;
33495;SDS011;19836;55.812;37.560;2024-01-30T10:35:35;10.02;;;7.53;;
33495;SDS011;19836;55.812;37.560;2024-01-30T10:38:01;10.85;;;7.25;;
33495;SDS011;19836;55.812;37.560;2024-01-30T10:40:27;9.93;;;7.63;;
33495;SDS011;19836;55.812;37.560;2024-01-30T10:42:54;8.95;;;7.72;;
33495;SDS011;19836;55.812;37.560;2024-01-30T10:45:21;12.25;;;7.57;;
33495;SDS011;19836;55.812;37.560;2024-01-30T10:47:49;9.82;;;8.07;;
33495;SDS011;19836;55.812;37.560;2024-01-30T10:50:16;10.55;;;7.88;;
33495;SDS011;19836;55.812;37.560;2024-01-30T10:52:42;10.10;;;8.30;;
33495;SDS011;19836;55.812;37.560;2024-01-30T10:55:09;10.63;;;7.65;;
33495;SDS011;19836;55.812;37.560;2024-01-30T10:57:35;10.07;;;7.97;;
33495;SDS011;19836;55.812;37.560;2024-01-30T11:00:03;10.20;;;7.85;;
33495;SDS011;19836;55.812;37.560;2024-01-30T11:02:36;10.02;;;7.70;;
33495;SDS011;19836;55.812;37.560;2024-01-30T11:05:06;12.02;;;8.00;;
33495;SDS011;19836;55.812;37.560;2024-01-30T11:07:34;12.57;;;7.40;;
33495;SDS011;19836;55.812;37.560;2024-01-30T11:10:00;9.50;;;7.32;;
33495;SDS011;19836;55.812;37.560;2024-01-30T11:12:32;10.00;;;7.35;;
33495;SDS011;19836;55.812;37.560;2024-01-30T11:20:22;9.25;;;7.10;;
33495;SDS011;19836;55.812;37.560;2024-01-30T11:22:52;10.23;;;7.60;;
33495;SDS011;19836;55.812;37.560;2024-01-30T11:25:22;10.98;;;8.23;;
33495;SDS011;19836;55.812;37.560;2024-01-30T11:27:50;11.15;;;8.00;;
33495;SDS011;19836;55.812;37.560;2024-01-30T11:30:26;11.00;;;7.45;;
33495;SDS011;19836;55.812;37.560;2024-01-30T11:35:38;11.00;;;8.05;;
33495;SDS011;19836;55.812;37.560;2024-01-30T11:38:06;12.23;;;7.65;;
33495;SDS011;19836;55.812;37.560;2024-01-30T11:40:33;11.38;;;7.85;;
33495;SDS011;19836;55.812;37.560;2024-01-30T11:43:01;11.25;;;8.45;;
33495;SDS011;19836;55.812;37.560;2024-01-30T11:45:28;12.88;;;8.50;;
33495;SDS011;19836;55.812;37.560;2024-01-30T11:47:54;10.90;;;8.35;;
33495;SDS011;19836;55.812;37.560;2024-01-30T11:50:21;10.80;;;8.27;;
33495;SDS011;19836;55.812;37.560;2024-01-30T11:52:47;9.80;;;7.75;;
33495;SDS011;19836;55.812;37.560;2024-01-30T11:55:14;10.50;;;7.47;;
33495;SDS011;19836;55.812;37.560;2024-01-30T11:57:41;9.95;;;8.00;;
33495;SDS011;19836;55.812;37.560;2024-01-30T12:00:28;8.57;;;7.57;;
33495;SDS011;19836;55.812;37.560;2024-01-30T12:02:56;10.75;;;7.68;;
33495;SDS011;19836;55.812;37.560;2024-01-30T12:05:23;10.30;;;7.75;;
33495;SDS011;19836;55.812;37.560;2024-01-30T12:07:49;11.00;;;8.45;;
33495;SDS011;19836;55.812;37.560;2024-01-30T12:10:15;10.50;;;7.25;;
33495;SDS011;19836;55.812;37.560;2024-01-30T12:12:42;10.07;;;7.95;;
33495;SDS011;19836;55.812;37.560;2024-01-30T12:15:11;11.20;;;8.40;;
33495;SDS011;19836;55.812;37.560;2024-01-30T12:17:38;10.68;;;8.35;;
33495;SDS011;19836;55.812;37.560;2024-01-30T12:20:14;12.07;;;8.43;;
33495;SDS011;19836;55.812;37.560;2024-01-30T12:22:43;11.43;;;8.35;;
33495;SDS011;19836;55.812;37.560;2024-01-30T12:25:10;12.95;;;8.07;;
33495;SDS011;19836;55.812;37.560;2024-01-30T12:27:37;11.15;;;7.70;;
33495;SDS011;19836;55.812;37.560;2024-01-30T12:30:07;10.80;;;7.75;;
33495;SDS011;19836;55.812;37.560;2024-01-30T12:32:38;9.80;;;7.90;;
33495;SDS011;19836;55.812;37.560;2024-01-30T12:35:12;13.02;;;8.35;;
33495;SDS011;19836;55.812;37.560;2024-01-30T12:37:39;11.88;;;8.55;;
33495;SDS011;19836;55.812;37.560;2024-01-30T12:40:09;10.73;;;7.45;;
33495;SDS011;19836;55.812;37.560;2024-01-30T12:42:36;11.68;;;8.27;;
33495;SDS011;19836;55.812;37.560;2024-01-30T12:45:03;10.88;;;8.15;;
33495;SDS011;19836;55.812;37.560;2024-01-30T12:47:29;11.65;;;8.43;;
33495;SDS011;19836;55.812;37.560;2024-01-30T12:49:56;10.43;;;8.60;;
33495;SDS011;19836;55.812;37.560;2024-01-30T12:52:22;13.43;;;8.75;;
33495;SDS011;19836;55.812;37.560;2024-01-30T12:54:48;10.23;;;8.15;;
33495;SDS011;19836;55.812;37.560;2024-01-30T12:57:15;10.13;;;8.57;;
33495;SDS011;19836;55.812;37.560;2024-01-30T12:59:42;10.30;;;8.10;;
33495;SDS011;19836;55.812;37.560;2024-01-30T13:02:09;11.20;;;8.45;;
33495;SDS011;19836;55.812;37.560;2024-01-30T13:04:36;11.50;;;8.35;;
33495;SDS011;19836;55.812;37.560;2024-01-30T13:07:02;11.15;;;8.05;;
33495;SDS011;19836;55.812;37.560;2024-01-30T13:09:29;12.27;;;8.38;;
33495;SDS011;19836;55.812;37.560;2024-01-30T13:11:57;9.55;;;7.70;;
33495;SDS011;19836;55.812;37.560;2024-01-30T13:14:24;9.60;;;7.45;;
33495;SDS011;19836;55.812;37.560;2024-01-30T13:16:50;12.18;;;7.93;;
33495;SDS011;19836;55.812;37.560;2024-01-30T13:19:16;10.20;;;7.32;;
33495;SDS011;19836;55.812;37.560;2024-01-30T13:21:42;11.98;;;8.70;;
33495;SDS011;19836;55.812;37.560;2024-01-30T13:24:08;11.85;;;8.02;;
33495;SDS011;19836;55.812;37.560;2024-01-30T13:26:35;11.77;;;8.60;;
33495;SDS011;19836;55.812;37.560;2024-01-30T13:29:01;11.30;;;8.32;;
33495;SDS011;19836;55.812;37.560;2024-01-30T13:31:27;11.10;;;8.35;;
33495;SDS011;19836;55.812;37.560;2024-01-30T13:33:53;12.70;;;8.80;;
33495;SDS011;19836;55.812;37.560;2024-01-30T13:36:20;11.93;;;8.00;;
33495;SDS011;19836;55.812;37.560;2024-01-30T13:38:46;11.43;;;8.10;;
33495;SDS011;19836;55.812;37.560;2024-01-30T13:41:13;10.50;;;8.02;;
33495;SDS011;19836;55.812;37.560;2024-01-30T13:43:38;11.30;;;7.72;;
33495;SDS011;19836;55.812;37.560;2024-01-30T13:46:04;10.20;;;7.63;;
33495;SDS011;19836;55.812;37.560;2024-01-30T13:48:31;10.77;;;8.20;;
33495;SDS011;19836;55.812;37.560;2024-01-30T13:50:57;9.88;;;8.23;;
33495;SDS011;19836;55.812;37.560;2024-01-30T13:53:23;12.02;;;8.38;;
33495;SDS011;19836;55.812;37.560;2024-01-30T13:55:49;10.18;;;8.50;;
33495;SDS011;19836;55.812;37.560;2024-01-30T13:58:15;12.30;;;8.85;;
33495;SDS011;19836;55.812;37.560;2024-01-30T14:00:41;14.38;;;9.48;;
33495;SDS011;19836;55.812;37.560;2024-01-30T14:03:07;11.15;;;8.85;;
33495;SDS011;19836;55.812;37.560;2024-01-30T14:05:33;12.52;;;8.43;;
33495;SDS011;19836;55.812;37.560;2024-01-30T14:07:59;12.00;;;8.95;;
33495;SDS011;19836;55.812;37.560;2024-01-30T14:10:25;10.63;;;8.75;;
33495;SDS011;19836;55.812;37.560;2024-01-30T14:12:51;13.23;;;8.93;;
33495;SDS011;19836;55.812;37.560;2024-01-30T14:15:18;13.52;;;10.02;;
33495;SDS011;19836;55.812;37.560;2024-01-30T14:17:45;11.98;;;9.25;;
33495;SDS011;19836;55.812;37.560;2024-01-30T14:20:14;14.45;;;9.98;;
33495;SDS011;19836;55.812;37.560;2024-01-30T14:22:43;13.60;;;9.68;;
33495;SDS011;19836;55.812;37.560;2024-01-30T14:25:08;12.88;;;9.55;;
33495;SDS011;19836;55.812;37.560;2024-01-30T14:27:35;13.02;;;8.85;;
33495;SDS011;19836;55.812;37.560;2024-01-30T14:30:01;10.48;;;9.00;;
33495;SDS011;19836;55.812;37.560;2024-01-30T14:32:29;13.35;;;8.52;;
33495;SDS011;19836;55.812;37.560;2024-01-30T14:34:55;12.60;;;9.70;;
33495;SDS011;19836;55.812;37.560;2024-01-30T14:37:21;11.80;;;9.63;;
33495;SDS011;19836;55.812;37.560;2024-01-30T14:39:47;15.30;;;9.05;;
33495;SDS011;19836;55.812;37.560;2024-01-30T14:42:14;12.02;;;8.43;;
33495;SDS011;19836;55.812;37.560;2024-01-30T14:44:41;11.95;;;9.10;;
33495;SDS011;19836;55.812;37.560;2024-01-30T14:47:07;12.23;;;9.13;;
33495;SDS011;19836;55.812;37.560;2024-01-30T14:49:33;11.50;;;8.77;;
33495;SDS011;19836;55.812;37.560;2024-01-30T14:51:59;11.93;;;8.93;;
33495;SDS011;19836;55.812;37.560;2024-01-30T14:54:26;11.45;;;9.20;;
33495;SDS011;19836;55.812;37.560;2024-01-30T14:56:53;12.48;;;9.52;;
33495;SDS011;19836;55.812;37.560;2024-01-30T14:59:19;14.13;;;9.25;;
33495;SDS011;19836;55.812;37.560;2024-01-30T15:01:45;11.20;;;8.82;;
33495;SDS011;19836;55.812;37.560;2024-01-30T15:04:12;13.05;;;8.85;;
33495;SDS011;19836;55.812;37.560;2024-01-30T15:06:38;13.23;;;9.73;;
33495;SDS011;19836;55.812;37.560;2024-01-30T15:09:04;10.80;;;8.98;;
33495;SDS011;19836;55.812;37.560;2024-01-30T15:11:30;12.48;;;8.52;;
33495;SDS011;19836;55.812;37.560;2024-01-30T15:13:58;9.35;;;8.13;;
33495;SDS011;19836;55.812;37.560;2024-01-30T15:16:24;14.85;;;8.95;;
33495;SDS011;19836;55.812;37.560;2024-01-30T15:18:49;10.63;;;7.68;;
33495;SDS011;19836;55.812;37.560;2024-01-30T15:21:15;12.98;;;9.32;;
33495;SDS011;19836;55.812;37.560;2024-01-30T15:23:45;12.90;;;8.77;;
33495;SDS011;19836;55.812;37.560;2024-01-30T15:26:11;12.48;;;8.82;;
33495;SDS011;19836;55.812;37.560;2024-01-30T15:28:37;12.70;;;8.60;;
33495;SDS011;19836;55.812;37.560;2024-01-30T15:31:06;11.40;;;8.30;;
33495;SDS011;19836;55.812;37.560;2024-01-30T15:33:33;12.60;;;8.88;;
33495;SDS011;19836;55.812;37.560;2024-01-30T15:35:59;11.35;;;8.70;;
33495;SDS011;19836;55.812;37.560;2024-01-30T15:38:26;11.68;;;9.13;;
33495;SDS011;19836;55.812;37.560;2024-01-30T15:40:54;11.40;;;8.75;;
33495;SDS011;19836;55.812;37.560;2024-01-30T15:43:21;13.98;;;9.20;;
33495;SDS011;19836;55.812;37.560;2024-01-30T15:45:51;11.23;;;9.07;;
33495;SDS011;19836;55.812;37.560;2024-01-30T15:48:17;11.13;;;8.73;;
33495;SDS011;19836;55.812;37.560;2024-01-30T15:50:45;14.32;;;8.77;;
33495;SDS011;19836;55.812;37.560;2024-01-30T15:53:11;11.93;;;9.77;;
33495;SDS011;19836;55.812;37.560;2024-01-30T15:55:38;11.85;;;8.93;;
33495;SDS011;19836;55.812;37.560;2024-01-30T15:58:04;13.07;;;8.57;;
33495;SDS011;19836;55.812;37.560;2024-01-30T16:00:32;15.48;;;9.20;;
33495;SDS011;19836;55.812;37.560;2024-01-30T16:02:58;13.32;;;9.70;;
33495;SDS011;19836;55.812;37.560;2024-01-30T16:05:24;12.95;;;9.82;;
33495;SDS011;19836;55.812;37.560;2024-01-30T16:07:50;12.57;;;9.70;;
33495;SDS011;19836;55.812;37.560;2024-01-30T16:10:18;12.32;;;9.80;;
33495;SDS011;19836;55.812;37.560;2024-01-30T16:17:05;15.18;;;10.18;;
33495;SDS011;19836;55.812;37.560;2024-01-30T16:19:32;13.50;;;9.88;;
33495;SDS011;19836;55.812;37.560;2024-01-30T16:21:58;14.85;;;10.73;;
33495;SDS011;19836;55.812;37.560;2024-01-30T16:24:24;14.23;;;10.52;;
33495;SDS011;19836;55.812;37.560;2024-01-30T16:30:32;12.73;;;9.82;;
33495;SDS011;19836;55.812;37.560;2024-01-30T16:44:54;13.48;;;10.88;;
33495;SDS011;19836;55.812;37.560;2024-01-30T16:57:51;14.15;;;11.40;;
33495;SDS011;19836;55.812;37.560;2024-01-30T17:00:24;15.60;;;10.38;;
33495;SDS011;19836;55.812;37.560;2024-01-30T17:02:50;16.08;;;10.35;;
33495;SDS011;19836;55.812;37.560;2024-01-30T17:05:34;18.70;;;10.70;;
33495;SDS011;19836;55.812;37.560;2024-01-30T17:08:00;15.45;;;10.70;;
33495;SDS011;19836;55.812;37.560;2024-01-30T17:10:26;12.50;;;10.57;;
33495;SDS011;19836;55.812;37.560;2024-01-30T17:12:54;14.50;;;10.15;;
33495;SDS011;19836;55.812;37.560;2024-01-30T17:15:23;14.35;;;10.55;;
33495;SDS011;19836;55.812;37.560;2024-01-30T17:21:01;16.35;;;11.18;;
33495;SDS011;19836;55.812;37.560;2024-01-30T17:23:58;15.80;;;10.88;;
33495;SDS011;19836;55.812;37.560;2024-01-30T17:26:24;16.15;;;11.50;;
33495;SDS011;19836;55.812;37.560;2024-01-30T17:28:50;15.52;;;11.10;;
33495;SDS011;19836;55.812;37.560;2024-01-30T17:31:18;15.27;;;11.10;;
33495;SDS011;19836;55.812;37.560;2024-01-30T17:34:10;14.38;;;10.75;;
33495;SDS011;19836;55.812;37.560;2024-01-30T17:36:53;15.82;;;11.55;;
33495;SDS011;19836;55.812;37.560;2024-01-30T17:45:00;16.40;;;11.45;;
33495;SDS011;19836;55.812;37.560;2024-01-30T17:48:01;15.75;;;11.10;;
33495;SDS011;19836;55.812;37.560;2024-01-30T17:50:28;16.27;;;11.00;;
33495;SDS011;19836;55.812;37.560;2024-01-30T17:52:54;15.70;;;11.27;;
33495;SDS011;19836;55.812;37.560;2024-01-30T17:55:21;15.65;;;11.00;;
33495;SDS011;19836;55.812;37.560;2024-01-30T17:57:53;16.40;;;11.60;;
33495;SDS011;19836;55.812;37.560;2024-01-30T18:00:29;16.65;;;11.90;;